createdAt,value
2023-04-12T00:00:22.974Z,4.72
2023-04-12T00:03:28.695Z,4.62
2023-04-12T00:06:34.069Z,4.56
2023-04-12T00:09:38.074Z,4.58
2023-04-12T00:12:42.129Z,4.53
2023-04-12T00:15:46.580Z,4.54
2023-04-12T00:18:51.683Z,4.45
2023-04-12T00:21:56.967Z,4.40
2023-04-12T00:25:00.758Z,4.39
2023-04-12T00:28:05.086Z,4.37
2023-04-12T00:31:09.958Z,4.24
2023-04-12T00:34:13.933Z,4.08
2023-04-12T00:37:18.971Z,4.05
2023-04-12T00:40:22.766Z,3.96
2023-04-12T00:43:27.930Z,3.92
2023-04-12T00:46:31.556Z,3.82
2023-04-12T00:49:35.815Z,3.84
2023-04-12T00:52:41.734Z,3.83
2023-04-12T00:55:47.246Z,3.83
2023-04-12T00:58:51.165Z,3.75
2023-04-12T01:01:55.339Z,3.73
2023-04-12T01:04:58.850Z,3.66
2023-04-12T01:08:15.220Z,3.63
2023-04-12T01:11:27.994Z,3.56
2023-04-12T01:14:44.875Z,3.54
2023-04-12T01:17:58.418Z,3.35
2023-04-12T01:21:09.069Z,3.31
2023-04-12T01:24:29.234Z,3.28
2023-04-12T01:27:43.759Z,3.21
2023-04-12T01:30:52.681Z,3.26
2023-04-12T01:34:01.382Z,3.19
2023-04-12T01:37:06.397Z,3.17
2023-04-12T01:40:11.435Z,3.12
2023-04-12T01:43:16.794Z,3.08
2023-04-12T01:46:24.263Z,2.92
2023-04-12T01:49:37.634Z,2.95
2023-04-12T01:52:54.138Z,2.89
2023-04-12T01:56:01.415Z,2.93
2023-04-12T01:59:09.333Z,2.97
2023-04-12T02:02:14.466Z,3.03
2023-04-12T02:05:18.696Z,3.14
2023-04-12T02:08:22.899Z,3.12
2023-04-12T02:11:26.555Z,3.10
2023-04-12T02:14:31.945Z,3.06
2023-04-12T02:17:36.361Z,2.98
2023-04-12T02:20:41.087Z,2.97
2023-04-12T02:23:45.237Z,2.99
2023-04-12T02:26:49.916Z,3.10
2023-04-12T02:29:55.140Z,3.18
2023-04-12T02:32:58.854Z,3.12
2023-04-12T02:36:11.416Z,3.18
2023-04-12T02:39:19.013Z,3.18
2023-04-12T02:42:24.977Z,3.05
2023-04-12T02:45:30.165Z,3.04
2023-04-12T02:48:34.415Z,3.05
2023-04-12T02:51:38.603Z,3.06
2023-04-12T02:54:42.757Z,3.09
2023-04-12T02:57:52.331Z,3.10
2023-04-12T03:01:00.480Z,3.04
2023-04-12T03:04:09.683Z,3.10
2023-04-12T03:07:22.531Z,3.14
2023-04-12T03:10:27.889Z,3.05
2023-04-12T03:13:37.958Z,3.16
2023-04-12T03:16:44.313Z,3.15
2023-04-12T03:19:52.608Z,3.15
2023-04-12T03:22:57.678Z,3.07
2023-04-12T03:26:01.358Z,3.14
2023-04-12T03:29:11.271Z,3.15
2023-04-12T03:32:18.340Z,3.23
2023-04-12T03:35:22.979Z,3.31
2023-04-12T03:38:28.042Z,3.35
2023-04-12T03:41:32.375Z,3.46
2023-04-12T03:44:39.171Z,3.40
2023-04-12T03:47:48.752Z,3.41
2023-04-12T03:50:54.789Z,3.36
2023-04-12T03:54:00.170Z,3.39
2023-04-12T03:57:04.244Z,3.52
2023-04-12T04:00:27.988Z,3.32
2023-04-12T04:03:43.952Z,3.41
2023-04-12T04:07:01.354Z,3.31
2023-04-12T04:10:09.185Z,3.33
2023-04-12T04:13:16.824Z,3.46
2023-04-12T04:16:20.545Z,3.34
2023-04-12T04:19:27.264Z,3.43
2023-04-12T04:22:32.696Z,3.66
2023-04-12T04:25:39.574Z,3.72
2023-04-12T04:28:46.413Z,3.58
2023-04-12T04:31:54.079Z,3.49
2023-04-12T04:35:00.854Z,3.51
2023-04-12T04:38:15.963Z,3.40
2023-04-12T04:41:22.967Z,3.30
2023-04-12T04:44:32.085Z,3.26
2023-04-12T04:47:36.843Z,3.26
2023-04-12T04:50:41.922Z,3.33
2023-04-12T04:53:46.024Z,3.37
2023-04-12T04:56:51.236Z,3.52
2023-04-12T04:59:56.153Z,3.46
2023-04-12T05:03:00.907Z,3.41
2023-04-12T05:06:07.744Z,3.30
2023-04-12T05:09:14.605Z,3.14
2023-04-12T05:12:24.416Z,3.22
2023-04-12T05:15:32.619Z,3.28
2023-04-12T05:18:37.212Z,3.21
2023-04-12T05:21:42.246Z,3.17
2023-04-12T05:24:46.121Z,3.18
2023-04-12T05:27:51.912Z,3.28
2023-04-12T05:30:56.750Z,3.45
2023-04-12T05:34:07.322Z,3.43
2023-04-12T05:37:18.070Z,3.37
2023-04-12T05:40:21.557Z,3.64
2023-04-12T05:43:28.269Z,3.53
2023-04-12T05:46:34.083Z,3.44
2023-04-12T05:49:38.155Z,3.53
2023-04-12T05:52:46.341Z,3.71
2023-04-12T05:55:50.149Z,3.72
2023-04-12T05:58:55.071Z,3.73
2023-04-12T06:01:59.305Z,3.72
2023-04-12T06:05:04.318Z,3.73
2023-04-12T06:08:10.509Z,3.85
2023-04-12T06:11:14.056Z,4.05
2023-04-12T06:14:19.069Z,4.00
2023-04-12T06:17:23.547Z,4.01
2023-04-12T06:20:27.047Z,3.68
2023-04-12T06:23:32.554Z,3.90
2023-04-12T06:26:39.801Z,3.80
2023-04-12T06:29:44.491Z,3.97
2023-04-12T06:32:48.752Z,4.05
2023-04-12T06:35:52.610Z,4.19
2023-04-12T06:38:57.656Z,4.14
2023-04-12T06:42:01.945Z,4.07
2023-04-12T06:45:06.250Z,4.59
2023-04-12T06:48:09.791Z,4.43
2023-04-12T06:51:13.454Z,4.39
2023-04-12T06:54:18.632Z,4.45
2023-04-12T06:57:22.491Z,4.77
2023-04-12T07:00:26.568Z,4.90
2023-04-12T07:03:33.369Z,4.96
2023-04-12T07:06:36.838Z,4.95
2023-04-12T07:09:41.834Z,4.90
2023-04-12T07:12:45.359Z,4.93
2023-04-12T07:15:50.672Z,5.68
2023-04-12T07:18:54.262Z,5.42
2023-04-12T07:21:57.841Z,5.56
2023-04-12T07:25:02.760Z,6.06
2023-04-12T07:28:08.701Z,6.30
2023-04-12T07:31:12.589Z,6.23
2023-04-12T07:34:16.233Z,6.94
2023-04-12T07:37:20.514Z,6.94
2023-04-12T07:40:25.947Z,7.02
2023-04-12T07:43:29.741Z,6.66
2023-04-12T07:46:33.226Z,6.95
2023-04-12T07:49:36.749Z,7.09
2023-04-12T07:52:40.468Z,7.84
2023-04-12T07:55:45.552Z,8.02
2023-04-12T07:58:49.403Z,7.90
2023-04-12T08:01:53.124Z,7.48
2023-04-12T08:04:56.618Z,7.45
2023-04-12T08:08:00.382Z,7.38
2023-04-12T08:11:06.778Z,7.82
2023-04-12T08:14:10.693Z,8.17
2023-04-12T08:17:14.059Z,8.83
2023-04-12T08:20:17.805Z,8.11
2023-04-12T08:23:21.656Z,7.90
2023-04-12T08:26:29.944Z,8.30
2023-04-12T08:29:34.950Z,8.31
2023-04-12T08:32:39.219Z,9.23
2023-04-12T08:35:51.331Z,9.21
2023-04-12T08:38:56.186Z,8.89
2023-04-12T08:42:02.276Z,8.99
2023-04-12T08:45:07.404Z,8.56
2023-04-12T08:48:11.347Z,8.78
2023-04-12T08:51:16.002Z,8.32
2023-04-12T08:54:19.635Z,8.34
2023-04-12T08:57:24.667Z,8.24
2023-04-12T09:00:28.903Z,9.10
2023-04-12T09:03:33.596Z,9.34
2023-04-12T09:06:37.614Z,9.06
2023-04-12T09:09:45.551Z,9.05
2023-04-12T09:12:52.307Z,9.16
2023-04-12T09:15:56.430Z,9.59
2023-04-12T09:19:02.639Z,9.35
2023-04-12T09:22:06.373Z,9.76
2023-04-12T09:25:10.166Z,9.89
2023-04-12T09:28:23.336Z,10.27
2023-04-12T09:31:26.943Z,10.35
2023-04-12T09:34:30.898Z,10.56
2023-04-12T09:37:34.416Z,10.84
2023-04-12T09:40:39.083Z,10.59
2023-04-12T09:43:44.214Z,10.80
2023-04-12T09:46:53.269Z,10.96
2023-04-12T09:49:57.001Z,11.61
2023-04-12T09:53:01.716Z,12.02
2023-04-12T09:56:06.146Z,12.00
2023-04-12T09:59:12.576Z,11.92
2023-04-12T10:02:18.114Z,11.76
2023-04-12T10:05:26.945Z,11.73
2023-04-12T10:08:32.942Z,11.91
2023-04-12T10:11:36.774Z,11.19
2023-04-12T10:14:43.642Z,11.19
2023-04-12T10:17:49.153Z,11.12
2023-04-12T10:20:52.920Z,11.02
2023-04-12T10:23:57.742Z,11.15
2023-04-12T10:27:03.511Z,11.35
2023-04-12T10:30:24.922Z,11.91
2023-04-12T10:33:29.521Z,11.27
2023-04-12T10:36:55.137Z,11.50
2023-04-12T10:39:58.655Z,11.33
2023-04-12T10:43:27.973Z,11.54
2023-04-12T10:46:51.777Z,12.20
2023-04-12T10:50:25.369Z,11.54
2023-04-12T10:53:33.426Z,11.37
2023-04-12T10:56:43.375Z,11.61
2023-04-12T10:59:59.728Z,11.50
2023-04-12T11:03:12.941Z,11.68
2023-04-12T11:06:27.204Z,11.13
2023-04-12T11:10:15.247Z,11.16
2023-04-12T11:13:19.082Z,11.69
2023-04-12T11:16:22.791Z,11.57
2023-04-12T11:19:27.826Z,11.07
2023-04-12T11:22:33.005Z,11.34
2023-04-12T11:25:39.089Z,11.59
2023-04-12T11:28:43.188Z,11.14
2023-04-12T11:31:46.781Z,11.57
2023-04-12T11:34:52.099Z,11.50
2023-04-12T11:37:57.621Z,11.67
2023-04-12T11:41:02.716Z,11.08
2023-04-12T11:44:07.187Z,11.36
2023-04-12T11:47:23.551Z,11.34
2023-04-12T11:50:42.169Z,11.28
2023-04-12T11:53:53.522Z,11.39
2023-04-12T11:56:58.699Z,11.79
2023-04-12T12:00:07.220Z,12.33
2023-04-12T12:03:19.323Z,11.91
2023-04-12T12:06:26.478Z,11.68
2023-04-12T12:09:31.364Z,12.06
2023-04-12T12:12:35.886Z,12.30
2023-04-12T12:15:40.328Z,12.38
2023-04-12T12:18:45.743Z,12.05
2023-04-12T12:21:50.781Z,11.56
2023-04-12T12:24:57.894Z,11.63
2023-04-12T12:28:05.517Z,12.00
2023-04-12T12:31:13.927Z,12.84
2023-04-12T12:34:19.875Z,13.34
2023-04-12T12:37:27.079Z,13.22
2023-04-12T12:40:33.019Z,12.71
2023-04-12T12:43:36.483Z,12.46
2023-04-12T12:46:53.630Z,12.68
2023-04-12T12:50:00.589Z,13.62
2023-04-12T12:53:07.128Z,14.41
2023-04-12T12:56:11.510Z,13.58
2023-04-12T12:59:15.045Z,13.79
2023-04-12T13:02:20.085Z,14.90
2023-04-12T13:05:23.942Z,14.00
2023-04-12T13:08:29.269Z,13.83
2023-04-12T13:11:33.013Z,15.24
2023-04-12T13:14:36.736Z,14.79
2023-04-12T13:17:40.568Z,15.77
2023-04-12T13:20:44.385Z,14.78
2023-04-12T13:23:54.796Z,14.58
2023-04-12T13:26:59.395Z,14.60
2023-04-12T13:30:06.013Z,14.30
2023-04-12T13:33:14.892Z,14.54
2023-04-12T13:36:20.790Z,15.23
2023-04-12T13:39:26.100Z,14.74
2023-04-12T13:42:30.378Z,15.23
2023-04-12T13:45:34.893Z,13.48
2023-04-12T13:48:38.439Z,13.82
2023-04-12T13:51:43.531Z,15.09
2023-04-12T13:54:48.962Z,15.07
2023-04-12T13:57:52.459Z,14.70
2023-04-12T14:00:56.900Z,14.86
2023-04-12T14:04:00.638Z,13.99
2023-04-12T14:07:04.126Z,13.96
2023-04-12T14:10:11.662Z,14.27
2023-04-12T14:13:15.599Z,13.88
2023-04-12T14:16:19.242Z,14.01
2023-04-12T14:19:22.739Z,13.29
2023-04-12T14:22:26.513Z,14.18
2023-04-12T14:25:31.473Z,14.97
2023-04-12T14:28:35.623Z,14.99
2023-04-12T14:31:39.771Z,15.26
2023-04-12T14:34:44.541Z,15.39
2023-04-12T14:37:48.259Z,14.64
2023-04-12T14:40:54.581Z,14.30
2023-04-12T14:43:58.387Z,14.93
2023-04-12T14:47:03.501Z,15.18
2023-04-12T14:50:08.589Z,15.38
2023-04-12T14:53:14.128Z,15.24
2023-04-12T14:56:29.756Z,15.36
2023-04-12T14:59:34.739Z,14.54
2023-04-12T15:02:41.371Z,14.90
2023-04-12T15:05:45.932Z,14.57
2023-04-12T15:08:49.778Z,15.17
2023-04-12T15:12:01.042Z,15.26
2023-04-12T15:15:06.420Z,14.86
2023-04-12T15:18:10.620Z,14.52
2023-04-12T15:21:14.941Z,14.32
2023-04-12T15:24:18.447Z,14.88
2023-04-12T15:27:23.528Z,14.68
2023-04-12T15:30:26.880Z,14.89
2023-04-12T15:33:34.430Z,14.36
2023-04-12T15:36:38.456Z,14.28
2023-04-12T15:39:42.533Z,13.69
2023-04-12T15:42:47.672Z,13.63
2023-04-12T15:45:53.566Z,13.29
2023-04-12T15:48:58.053Z,13.91
2023-04-12T15:52:01.920Z,13.78
2023-04-12T15:55:07.647Z,13.64
2023-04-12T15:58:13.795Z,13.89
2023-04-12T16:01:17.613Z,13.84
2023-04-12T16:04:21.178Z,13.63
2023-04-12T16:07:25.762Z,13.44
2023-04-12T16:10:30.455Z,13.49
2023-04-12T16:13:35.599Z,13.59
2023-04-12T16:16:40.645Z,13.50
2023-04-12T16:19:44.197Z,13.50
2023-04-12T16:22:48.378Z,13.12
2023-04-12T16:25:51.758Z,13.30
2023-04-12T16:28:59.360Z,13.37
2023-04-12T16:32:03.400Z,13.21
2023-04-12T16:35:08.230Z,12.86
2023-04-12T16:38:12.261Z,12.88
2023-04-12T16:41:17.409Z,12.77
2023-04-12T16:44:22.234Z,12.60
2023-04-12T16:47:26.164Z,12.74
2023-04-12T16:50:29.665Z,12.63
2023-04-12T16:53:33.098Z,12.61
2023-04-12T16:56:38.719Z,12.57
2023-04-12T16:59:43.686Z,12.41
2023-04-12T17:02:48.674Z,12.28
2023-04-12T17:05:52.828Z,12.00
2023-04-12T17:08:57.572Z,12.10
2023-04-12T17:12:02.940Z,11.79
2023-04-12T17:15:08.827Z,11.83
2023-04-12T17:18:12.479Z,11.62
2023-04-12T17:21:17.158Z,11.46
2023-04-12T17:24:20.808Z,11.31
2023-04-12T17:27:24.175Z,11.13
2023-04-12T17:30:29.650Z,10.72
2023-04-12T17:33:33.108Z,10.89
2023-04-12T17:36:36.571Z,10.84
2023-04-12T17:39:39.955Z,10.78
2023-04-12T17:42:44.648Z,10.47
2023-04-12T17:45:49.558Z,10.36
2023-04-12T17:48:52.983Z,10.22
2023-04-12T17:51:56.329Z,10.06
2023-04-12T17:54:59.724Z,9.69
2023-04-12T17:58:03.520Z,9.62
2023-04-12T18:01:08.374Z,9.53
2023-04-12T18:04:12.413Z,9.13
2023-04-12T18:07:15.883Z,9.01
2023-04-12T18:10:21.796Z,9.15
2023-04-12T18:13:25.326Z,8.72
2023-04-12T18:16:30.385Z,8.84
2023-04-12T18:19:33.839Z,8.76
2023-04-12T18:22:37.383Z,8.72
2023-04-12T18:25:40.790Z,8.81
2023-04-12T18:28:44.273Z,8.71
2023-04-12T18:31:49.058Z,8.37
2023-04-12T18:34:52.813Z,8.18
2023-04-12T18:37:56.468Z,8.19
2023-04-12T18:41:00.361Z,7.86
2023-04-12T18:44:03.875Z,7.77
2023-04-12T18:47:09.002Z,7.75
2023-04-12T18:50:12.756Z,7.47
2023-04-12T18:53:16.347Z,7.37
2023-04-12T18:56:23.824Z,7.30
2023-04-12T18:59:27.522Z,7.47
2023-04-12T19:02:34.386Z,7.32
2023-04-12T19:05:38.056Z,7.52
2023-04-12T19:08:43.310Z,7.37
2023-04-12T19:11:47.278Z,6.99
2023-04-12T19:14:51.174Z,6.83
2023-04-12T19:17:56.122Z,6.60
2023-04-12T19:20:59.472Z,6.74
2023-04-12T19:24:03.896Z,6.81
2023-04-12T19:27:07.857Z,6.53
2023-04-12T19:30:13.101Z,6.71
2023-04-12T19:33:17.940Z,6.73
2023-04-12T19:36:23.225Z,6.63
2023-04-12T19:39:27.114Z,6.79
2023-04-12T19:42:30.814Z,6.91
2023-04-12T19:45:34.241Z,6.74
2023-04-12T19:48:39.176Z,6.98
2023-04-12T19:51:43.543Z,6.85
2023-04-12T19:54:46.923Z,6.67
2023-04-12T19:57:51.396Z,6.32
2023-04-12T20:00:55.047Z,6.55
2023-04-12T20:03:59.825Z,6.44
2023-04-12T20:07:03.205Z,6.44
2023-04-12T20:10:10.367Z,6.36
2023-04-12T20:13:15.436Z,6.39
2023-04-12T20:16:19.641Z,6.15
2023-04-12T20:19:24.396Z,6.36
2023-04-12T20:22:27.873Z,6.06
2023-04-12T20:25:35.604Z,6.19
2023-04-12T20:28:39.088Z,6.27
2023-04-12T20:31:42.428Z,6.33
2023-04-12T20:34:49.097Z,6.10
2023-04-12T20:37:53.036Z,6.03
2023-04-12T20:40:57.511Z,6.22
2023-04-12T20:44:00.969Z,6.13
2023-04-12T20:47:04.449Z,6.13
2023-04-12T20:50:10.394Z,6.22
2023-04-12T20:53:15.830Z,6.13
2023-04-12T20:56:19.989Z,6.15
2023-04-12T20:59:24.036Z,6.09
2023-04-12T21:02:27.770Z,6.00
2023-04-12T21:05:33.903Z,6.34
2023-04-12T21:08:38.285Z,6.20
2023-04-12T21:11:42.104Z,6.44
2023-04-12T21:14:50.367Z,5.97
2023-04-12T21:17:54.310Z,5.79
2023-04-12T21:21:02.257Z,5.69
2023-04-12T21:24:07.562Z,5.77
2023-04-12T21:27:11.665Z,5.82
2023-04-12T21:30:15.819Z,5.78
2023-04-12T21:33:24.659Z,5.81
2023-04-12T21:36:30.451Z,5.72
2023-04-12T21:39:33.915Z,5.78
2023-04-12T21:42:38.538Z,5.71
2023-04-12T21:45:42.012Z,5.71
2023-04-12T21:48:45.475Z,5.58
2023-04-12T21:51:52.338Z,5.64
2023-04-12T21:54:55.953Z,5.51
2023-04-12T21:57:59.691Z,5.51
2023-04-12T22:01:04.041Z,5.56
2023-04-12T22:04:07.906Z,5.48
2023-04-12T22:07:16.949Z,5.39
2023-04-12T22:10:20.735Z,5.49
2023-04-12T22:13:24.830Z,5.52
2023-04-12T22:16:28.410Z,5.71
2023-04-12T22:19:31.859Z,5.78
2023-04-12T22:22:37.418Z,5.75
2023-04-12T22:25:40.832Z,5.80
2023-04-12T22:28:44.509Z,5.94
2023-04-12T22:31:50.188Z,5.90
2023-04-12T22:35:05.106Z,5.94
2023-04-12T22:38:14.823Z,5.88
2023-04-12T22:41:18.872Z,5.78
2023-04-12T22:44:22.908Z,5.86
2023-04-12T22:47:26.608Z,5.72
2023-04-12T22:50:30.031Z,5.69
2023-04-12T22:53:34.795Z,5.88
2023-04-12T22:56:45.224Z,5.84
2023-04-12T22:59:48.601Z,5.79
2023-04-12T23:02:53.848Z,5.84
2023-04-12T23:05:57.908Z,5.87
2023-04-12T23:09:05.863Z,5.92
2023-04-12T23:12:09.290Z,5.72
2023-04-12T23:15:13.016Z,5.80
2023-04-12T23:18:16.260Z,5.81
2023-04-12T23:21:19.817Z,5.80
2023-04-12T23:24:25.149Z,6.04
2023-04-12T23:27:29.179Z,6.04
2023-04-12T23:30:32.517Z,5.93
2023-04-12T23:33:35.991Z,5.96
2023-04-12T23:36:39.374Z,5.73
2023-04-12T23:39:44.307Z,5.81
2023-04-12T23:42:48.777Z,5.93
2023-04-12T23:45:53.341Z,5.84
2023-04-12T23:48:57.132Z,5.81
2023-04-12T23:52:00.725Z,5.88
2023-04-12T23:55:06.054Z,5.75
2023-04-12T23:58:09.443Z,5.78
